Time;durP1;ratioP1;P1;durP2;ratioP2;P2;SDS_P1;SDS_P2;PMS_P1;PMS_P2;Temp;Humidity;BMP_temperature;BMP_pressure;BME280_temperature;BME280_humidity;BME280_pressure;Samples;Min_cycle;Max_cycle;Signal;HPM_P1;HPM_P2
2022/11/15 00:00:53;;;;;;;16.07;13.30;;;;;;;;;;4983331;28;20256;-73
2022/11/15 00:03:39;;;;;;;14.47;13.10;;;;;;;;;;4965255;28;20256;-73
2022/11/15 00:06:23;;;;;;;14.27;12.97;;;;;;;;;;4979094;28;20232;-73
2022/11/15 00:09:08;;;;;;;14.63;13.10;;;;;;;;;;4981290;28;20231;-74
2022/11/15 00:11:54;;;;;;;14.13;12.73;;;;;;;;;;4978810;28;20352;-73
2022/11/15 00:14:41;;;;;;;14.30;13.00;;;;;;;;;;4993220;28;20243;-73
2022/11/15 00:17:27;;;;;;;15.23;13.90;;;;;;;;;;4975484;28;20632;-73
2022/11/15 00:20:12;;;;;;;14.40;13.17;;;;;;;;;;4993005;28;20312;-73
2022/11/15 00:22:56;;;;;;;14.67;13.37;;;;;;;;;;4999220;28;20239;-73
2022/11/15 00:25:40;;;;;;;14.40;13.10;;;;;;;;;;4980016;28;20753;-73
2022/11/15 00:28:25;;;;;;;15.03;13.63;;;;;;;;;;4974700;28;20232;-72
2022/11/15 00:31:12;;;;;;;13.83;12.63;;;;;;;;;;4979420;28;20280;-73
2022/11/15 00:33:56;;;;;;;14.90;13.40;;;;;;;;;;4963489;28;20236;-73
2022/11/15 00:36:40;;;;;;;14.87;13.53;;;;;;;;;;4987932;28;20777;-73
2022/11/15 00:39:27;;;;;;;13.47;12.10;;;;;;;;;;4984667;28;20280;-72
2022/11/15 00:42:11;;;;;;;13.70;12.50;;;;;;;;;;4975158;28;20275;-72
2022/11/15 00:44:55;;;;;;;14.33;13.03;;;;;;;;;;4981962;28;20769;-73
2022/11/15 00:47:42;;;;;;;13.83;12.43;;;;;;;;;;4969387;28;20228;-73
2022/11/15 00:50:28;;;;;;;13.30;12.10;;;;;;;;;;4988077;28;20236;-72
2022/11/15 00:53:12;;;;;;;13.30;11.97;;;;;;;;;;4966723;28;20236;-73
2022/11/15 00:56:01;;;;;;;13.20;11.90;;;;;;;;;;4998694;28;20268;-73
2022/11/15 00:58:46;;;;;;;11.97;10.90;;;;;;;;;;4991231;28;20244;-72
2022/11/15 01:01:30;;;;;;;13.13;11.77;;;;;;;;;;4971896;28;20280;-72
2022/11/15 01:04:14;;;;;;;11.87;10.67;;;;;;;;;;4979451;28;20718;-72
2022/11/15 01:07:00;;;;;;;12.00;10.93;;;;;;;;;;4967437;28;20276;-73
2022/11/15 01:09:45;;;;;;;12.07;10.77;;;;;;;;;;4984987;28;20870;-73
2022/11/15 01:12:29;;;;;;;11.57;10.40;;;;;;;;;;4976455;28;20418;-72
2022/11/15 01:15:13;;;;;;;12.27;11.17;;;;;;;;;;4986460;28;20260;-73
2022/11/15 01:18:00;;;;;;;11.37;10.37;;;;;;;;;;4965413;28;20359;-74
2022/11/15 01:20:46;;;;;;;11.27;10.27;;;;;;;;;;4981545;28;20308;-74
2022/11/15 01:23:30;;;;;;;11.67;10.57;;;;;;;;;;5000450;28;20228;-72
2022/11/15 01:26:15;;;;;;;11.87;10.73;;;;;;;;;;4991007;28;20853;-74
2022/11/15 01:28:59;;;;;;;11.43;10.43;;;;;;;;;;4973222;28;20302;-73
2022/11/15 01:31:43;;;;;;;10.43;9.43;;;;;;;;;;4994190;28;20263;-74
2022/11/15 01:34:27;;;;;;;11.67;10.47;;;;;;;;;;4987789;28;20716;-74
2022/11/15 01:37:11;;;;;;;10.27;9.40;;;;;;;;;;4978196;28;20279;-72
2022/11/15 01:39:55;;;;;;;10.17;9.23;;;;;;;;;;4979594;28;20250;-72
2022/11/15 01:42:39;;;;;;;10.10;9.20;;;;;;;;;;4997469;28;20227;-73
2022/11/15 01:45:24;;;;;;;10.77;9.73;;;;;;;;;;4997918;28;20256;-75
2022/11/15 01:48:08;;;;;;;10.37;9.50;;;;;;;;;;4988903;28;20320;-72
2022/11/15 01:50:52;;;;;;;11.77;10.67;;;;;;;;;;4991032;28;20236;-73
2022/11/15 01:53:41;;;;;;;11.07;10.17;;;;;;;;;;4995203;28;20279;-72
2022/11/15 01:56:27;;;;;;;10.80;9.77;;;;;;;;;;4966025;28;20231;-74
2022/11/15 01:59:12;;;;;;;11.40;10.27;;;;;;;;;;4991591;28;20829;-74
2022/11/15 02:02:01;;;;;;;11.43;10.23;;;;;;;;;;4983212;28;20231;-74
2022/11/15 02:04:46;;;;;;;11.20;10.20;;;;;;;;;;4977345;28;20269;-73
2022/11/15 02:07:30;;;;;;;10.93;9.93;;;;;;;;;;4991278;28;20239;-72
2022/11/15 02:10:22;;;;;;;10.93;9.73;;;;;;;;;;4989365;28;20220;-73
2022/11/15 02:13:06;;;;;;;10.87;9.73;;;;;;;;;;4983096;28;20225;-73
2022/11/15 02:16:04;;;;;;;11.17;10.03;;;;;;;;;;4974348;28;20233;-72
2022/11/15 02:18:59;;;;;;;11.60;10.57;;;;;;;;;;4985260;28;20348;-73
2022/11/15 02:22:05;;;;;;;11.43;10.27;;;;;;;;;;4994761;28;20224;-73
2022/11/15 02:25:17;;;;;;;13.00;11.70;;;;;;;;;;4956761;28;20236;-73
2022/11/15 02:28:36;;;;;;;12.90;11.60;;;;;;;;;;4987324;28;20266;-73
2022/11/15 02:31:26;;;;;;;14.43;11.73;;;;;;;;;;4959543;28;20718;-72
2022/11/15 02:34:25;;;;;;;12.00;10.80;;;;;;;;;;4985600;28;20228;-72
2022/11/15 02:37:18;;;;;;;11.37;10.23;;;;;;;;;;4984379;28;20355;-72
2022/11/15 02:40:17;;;;;;;11.90;10.73;;;;;;;;;;4995438;28;20622;-72
2022/11/15 02:46:16;;;;;;;11.67;10.50;;;;;;;;;;4978760;28;20284;-74
2022/11/15 02:49:03;;;;;;;12.80;11.60;;;;;;;;;;4981357;28;20733;-73
2022/11/15 02:51:48;;;;;;;12.37;11.00;;;;;;;;;;4986254;28;20278;-74
2022/11/15 02:54:33;;;;;;;11.57;10.57;;;;;;;;;;4976568;28;20236;-73
2022/11/15 02:57:17;;;;;;;12.90;11.70;;;;;;;;;;4964323;28;20306;-73
2022/11/15 03:00:05;;;;;;;12.43;11.37;;;;;;;;;;4971616;28;20240;-72
2022/11/15 03:02:52;;;;;;;11.53;10.33;;;;;;;;;;4985854;28;20372;-74
2022/11/15 03:05:47;;;;;;;12.13;10.93;;;;;;;;;;5003065;28;20668;-73
2022/11/15 03:08:33;;;;;;;12.83;11.47;;;;;;;;;;4988299;28;20275;-74
2022/11/15 03:11:20;;;;;;;11.07;10.03;;;;;;;;;;4975095;28;20228;-71
2022/11/15 03:14:24;;;;;;;11.70;10.50;;;;;;;;;;4968892;28;20303;-73
2022/11/15 03:17:28;;;;;;;11.10;10.10;;;;;;;;;;4982112;28;20259;-73
2022/11/15 03:20:13;;;;;;;10.70;9.60;;;;;;;;;;4979388;28;20247;-73
2022/11/15 03:23:01;;;;;;;11.00;10.10;;;;;;;;;;4985139;28;20228;-74
2022/11/15 03:25:46;;;;;;;11.70;10.40;;;;;;;;;;4984183;28;20264;-73
2022/11/15 03:28:45;;;;;;;13.40;9.93;;;;;;;;;;4975274;28;20228;-73
2022/11/15 03:31:46;;;;;;;11.57;10.57;;;;;;;;;;4971411;28;20662;-74
2022/11/15 03:35:09;;;;;;;11.90;10.73;;;;;;;;;;4974967;28;20236;-74
2022/11/15 03:38:22;;;;;;;11.65;10.65;;;;;;;;;;4993504;28;20237;-73
2022/11/15 03:41:09;;;;;;;11.17;10.17;;;;;;;;;;4978753;28;20220;-74
2022/11/15 03:43:57;;;;;;;10.77;9.77;;;;;;;;;;4972546;28;20668;-73
2022/11/15 03:46:53;;;;;;;11.83;10.67;;;;;;;;;;4973279;28;20621;-72
2022/11/15 03:49:40;;;;;;;11.43;10.30;;;;;;;;;;4963077;28;20260;-73
2022/11/15 03:52:26;;;;;;;9.63;8.77;;;;;;;;;;4964711;28;20228;-73
2022/11/15 03:55:15;;;;;;;11.40;10.30;;;;;;;;;;4981447;28;20236;-73
2022/11/15 03:58:00;;;;;;;9.80;8.90;;;;;;;;;;4983425;28;20225;-71
2022/11/15 04:00:46;;;;;;;11.77;10.67;;;;;;;;;;4986324;28;20247;-74
2022/11/15 04:03:33;;;;;;;10.07;9.13;;;;;;;;;;4984647;28;20224;-71
2022/11/15 04:06:17;;;;;;;10.57;9.30;;;;;;;;;;4967934;28;20291;-71
2022/11/15 04:09:01;;;;;;;10.73;9.73;;;;;;;;;;4983940;28;20710;-73
2022/11/15 04:11:47;;;;;;;10.30;9.03;;;;;;;;;;4979688;28;20762;-73
2022/11/15 04:14:31;;;;;;;12.37;10.00;;;;;;;;;;4978639;28;20228;-73
2022/11/15 04:17:20;;;;;;;10.03;9.00;;;;;;;;;;4993669;28;20331;-73
2022/11/15 04:26:18;;;;;;;11.17;9.47;;;;;;;;;;4988760;28;20683;-74
2022/11/15 04:32:22;;;;;;;10.47;9.40;;;;;;;;;;4937999;29;20265;-73
2022/11/15 04:35:07;;;;;;;10.00;9.00;;;;;;;;;;4982956;28;20650;-73
2022/11/15 04:37:56;;;;;;;10.47;9.37;;;;;;;;;;4976027;28;20224;-74
2022/11/15 04:40:40;;;;;;;9.73;8.83;;;;;;;;;;4985989;28;20236;-71
2022/11/15 04:43:25;;;;;;;10.07;9.07;;;;;;;;;;4969474;28;20706;-72
2022/11/15 04:46:09;;;;;;;9.93;8.77;;;;;;;;;;4990239;28;20287;-72
2022/11/15 04:48:55;;;;;;;9.90;8.90;;;;;;;;;;4973591;28;20260;-72
2022/11/15 04:51:42;;;;;;;8.73;8.03;;;;;;;;;;4986555;28;20245;-72
2022/11/15 04:54:29;;;;;;;9.07;8.07;;;;;;;;;;4985268;28;20228;-72
2022/11/15 04:57:15;;;;;;;9.80;8.93;;;;;;;;;;4982604;28;20244;-72
2022/11/15 05:00:02;;;;;;;9.60;8.60;;;;;;;;;;4988169;28;20240;-73
2022/11/15 05:05:51;;;;;;;9.10;8.40;;;;;;;;;;4995245;28;20236;-74
2022/11/15 05:08:35;;;;;;;9.00;8.07;;;;;;;;;;4992818;28;20271;-73
2022/11/15 05:11:20;;;;;;;8.93;8.13;;;;;;;;;;4984159;28;20748;-74
2022/11/15 05:14:04;;;;;;;10.07;8.77;;;;;;;;;;4974024;28;21068;-75
2022/11/15 05:16:50;;;;;;;9.27;8.47;;;;;;;;;;4992511;28;20232;-74
2022/11/15 05:19:34;;;;;;;9.57;8.60;;;;;;;;;;4990671;28;20237;-74
2022/11/15 05:22:19;;;;;;;9.00;8.00;;;;;;;;;;4989125;28;20239;-73
2022/11/15 05:25:06;;;;;;;9.83;8.87;;;;;;;;;;4968357;28;20360;-73
2022/11/15 05:27:52;;;;;;;10.17;8.07;;;;;;;;;;4958788;28;20239;-73
2022/11/15 05:30:36;;;;;;;9.77;8.80;;;;;;;;;;4967973;28;20614;-73
2022/11/15 05:33:21;;;;;;;10.50;8.37;;;;;;;;;;4974120;28;20242;-73
2022/11/15 05:36:40;;;;;;;8.90;8.10;;;;;;;;;;4964459;28;20361;-73
2022/11/15 05:39:26;;;;;;;8.03;7.23;;;;;;;;;;4989804;28;20241;-71
2022/11/15 05:42:16;;;;;;;10.10;8.30;;;;;;;;;;4987538;28;20263;-71
2022/11/15 05:45:02;;;;;;;8.97;8.17;;;;;;;;;;4983131;28;20780;-72
2022/11/15 05:47:46;;;;;;;8.13;7.47;;;;;;;;;;4977311;28;20323;-74
2022/11/15 05:50:32;;;;;;;9.37;8.30;;;;;;;;;;5002851;28;20263;-72
2022/11/15 05:53:17;;;;;;;9.10;8.10;;;;;;;;;;4977409;28;20223;-74
2022/11/15 05:56:03;;;;;;;8.30;7.50;;;;;;;;;;4956487;28;20287;-74
2022/11/15 05:58:47;;;;;;;9.90;8.13;;;;;;;;;;4969207;28;20287;-73
2022/11/15 06:01:31;;;;;;;8.20;7.47;;;;;;;;;;4985285;28;20347;-73
2022/11/15 06:04:17;;;;;;;8.23;7.43;;;;;;;;;;4985477;28;20224;-74
2022/11/15 06:07:01;;;;;;;7.80;7.10;;;;;;;;;;4984497;28;20232;-72
2022/11/15 06:09:47;;;;;;;8.07;7.37;;;;;;;;;;4986301;28;20224;-72
2022/11/15 06:12:32;;;;;;;8.73;7.53;;;;;;;;;;4958402;28;20275;-71
2022/11/15 06:15:15;;;;;;;7.83;6.87;;;;;;;;;;4972725;28;20275;-73
2022/11/15 06:18:00;;;;;;;7.63;6.93;;;;;;;;;;4990946;28;20228;-73
2022/11/15 06:20:44;;;;;;;7.73;6.93;;;;;;;;;;4981695;28;20291;-74
2022/11/15 06:23:33;;;;;;;8.03;7.23;;;;;;;;;;4970287;28;20615;-73
2022/11/15 06:26:17;;;;;;;7.30;6.60;;;;;;;;;;4945539;28;20233;-74
2022/11/15 06:29:04;;;;;;;10.77;9.70;;;;;;;;;;5001308;28;20228;-73
2022/11/15 06:31:47;;;;;;;9.70;8.80;;;;;;;;;;4965280;28;20241;-74
2022/11/15 06:34:32;;;;;;;10.30;9.37;;;;;;;;;;4989100;28;20235;-73
2022/11/15 06:37:18;;;;;;;8.33;7.40;;;;;;;;;;4972115;28;20272;-73
2022/11/15 06:40:05;;;;;;;7.37;6.60;;;;;;;;;;4995918;28;20244;-73
2022/11/15 06:42:52;;;;;;;10.83;9.73;;;;;;;;;;4972919;28;20275;-74
2022/11/15 06:45:36;;;;;;;7.63;6.93;;;;;;;;;;4966526;28;20691;-72
2022/11/15 06:48:23;;;;;;;7.00;6.40;;;;;;;;;;4975763;28;20836;-72
2022/11/15 06:51:07;;;;;;;6.90;6.20;;;;;;;;;;4979012;28;20782;-77
2022/11/15 06:53:51;;;;;;;7.93;7.10;;;;;;;;;;4957457;28;20228;-72
2022/11/15 06:56:36;;;;;;;6.37;5.77;;;;;;;;;;4996381;28;20240;-72
2022/11/15 06:59:20;;;;;;;6.63;6.00;;;;;;;;;;5001811;28;20287;-72
2022/11/15 07:02:04;;;;;;;7.60;6.80;;;;;;;;;;4955351;28;20256;-71
2022/11/15 07:04:48;;;;;;;12.57;11.17;;;;;;;;;;4994383;28;20315;-72
2022/11/15 07:07:32;;;;;;;7.57;6.87;;;;;;;;;;4977834;28;20263;-72
2022/11/15 07:10:16;;;;;;;9.43;8.23;;;;;;;;;;4986233;28;20356;-73
2022/11/15 07:13:00;;;;;;;16.87;15.07;;;;;;;;;;4981554;28;20255;-72
2022/11/15 07:15:45;;;;;;;7.13;6.13;;;;;;;;;;4988560;28;20284;-71
2022/11/15 07:18:29;;;;;;;18.77;15.73;;;;;;;;;;4970720;28;20319;-72
2022/11/15 07:21:13;;;;;;;12.27;8.50;;;;;;;;;;4965443;28;20243;-71
2022/11/15 07:24:00;;;;;;;7.23;6.53;;;;;;;;;;4984817;28;20671;-72
2022/11/15 07:26:44;;;;;;;6.10;5.60;;;;;;;;;;4963906;28;20788;-72
2022/11/15 07:29:28;;;;;;;5.93;5.30;;;;;;;;;;4968858;28;20240;-73
2022/11/15 07:32:12;;;;;;;6.57;5.70;;;;;;;;;;4978751;28;20282;-73
2022/11/15 07:34:57;;;;;;;6.03;5.53;;;;;;;;;;4980128;28;20325;-73
2022/11/15 07:37:43;;;;;;;6.13;5.63;;;;;;;;;;4984819;28;20227;-72
2022/11/15 07:40:29;;;;;;;6.10;5.60;;;;;;;;;;4968537;28;20776;-74
2022/11/15 07:43:13;;;;;;;6.27;5.67;;;;;;;;;;4971503;28;20239;-71
2022/11/15 07:45:59;;;;;;;6.80;6.07;;;;;;;;;;4953897;28;20302;-72
2022/11/15 07:48:44;;;;;;;6.07;5.53;;;;;;;;;;4969649;28;20240;-73
2022/11/15 07:51:28;;;;;;;6.73;6.13;;;;;;;;;;4978406;28;20761;-73
2022/11/15 07:54:12;;;;;;;6.43;5.83;;;;;;;;;;4958701;28;20247;-73
2022/11/15 07:56:56;;;;;;;6.40;5.90;;;;;;;;;;4968393;28;20232;-71
2022/11/15 07:59:40;;;;;;;8.10;5.90;;;;;;;;;;4976847;28;20695;-71
2022/11/15 08:02:24;;;;;;;5.90;5.40;;;;;;;;;;4996217;28;20721;-71
2022/11/15 08:05:08;;;;;;;6.13;4.90;;;;;;;;;;4984768;28;20298;-73
2022/11/15 08:07:55;;;;;;;5.53;5.03;;;;;;;;;;4957812;28;20858;-74
2022/11/15 08:10:39;;;;;;;5.23;4.73;;;;;;;;;;4980676;28;20314;-74
2022/11/15 08:13:25;;;;;;;5.03;4.60;;;;;;;;;;4970581;28;20237;-75
2022/11/15 08:16:11;;;;;;;6.50;4.60;;;;;;;;;;4971871;28;20283;-73
2022/11/15 08:18:58;;;;;;;6.30;4.97;;;;;;;;;;4982960;28;20231;-73
2022/11/15 08:21:44;;;;;;;5.07;4.53;;;;;;;;;;4968842;28;20259;-73
2022/11/15 08:24:28;;;;;;;5.00;4.60;;;;;;;;;;4980909;28;20244;-73
2022/11/15 08:27:15;;;;;;;5.57;5.07;;;;;;;;;;4986153;28;20336;-73
2022/11/15 08:29:59;;;;;;;5.93;5.33;;;;;;;;;;4993531;28;20651;-72
2022/11/15 08:32:46;;;;;;;5.73;4.53;;;;;;;;;;4994420;28;20236;-73
2022/11/15 08:35:30;;;;;;;5.40;4.80;;;;;;;;;;4995302;28;20606;-73
2022/11/15 08:38:14;;;;;;;5.27;4.80;;;;;;;;;;4982907;28;20224;-73
2022/11/15 08:41:01;;;;;;;4.70;4.40;;;;;;;;;;4994662;28;20618;-73
2022/11/15 08:43:45;;;;;;;5.07;4.67;;;;;;;;;;4988774;28;20616;-72
2022/11/15 08:46:29;;;;;;;5.20;4.67;;;;;;;;;;4995906;28;20323;-72
2022/11/15 08:49:13;;;;;;;5.17;4.70;;;;;;;;;;4971877;28;20271;-73
2022/11/15 08:52:16;;;;;;;4.33;3.93;;;;;;;;;;4981423;28;20602;-73
2022/11/15 08:55:01;;;;;;;4.83;4.43;;;;;;;;;;4956808;28;20232;-72
2022/11/15 08:57:45;;;;;;;4.90;4.40;;;;;;;;;;4993748;28;20290;-72
2022/11/15 09:00:29;;;;;;;4.50;4.10;;;;;;;;;;4973901;28;20275;-71
2022/11/15 09:03:13;;;;;;;4.33;4.03;;;;;;;;;;4972565;28;20228;-71
2022/11/15 09:06:01;;;;;;;5.50;4.33;;;;;;;;;;4981630;28;20331;-72
2022/11/15 09:08:45;;;;;;;4.80;4.40;;;;;;;;;;4990849;28;20244;-71
2022/11/15 09:11:29;;;;;;;4.97;4.57;;;;;;;;;;4962229;28;20596;-72
2022/11/15 09:14:14;;;;;;;4.73;4.33;;;;;;;;;;4964523;28;20232;-71
2022/11/15 09:17:01;;;;;;;5.30;4.33;;;;;;;;;;4981342;28;20272;-73
2022/11/15 09:19:44;;;;;;;4.97;4.47;;;;;;;;;;4983109;28;20248;-72
2022/11/15 09:22:29;;;;;;;6.60;4.10;;;;;;;;;;4970743;28;20224;-72
2022/11/15 09:25:13;;;;;;;4.73;4.20;;;;;;;;;;4974033;28;20372;-72
2022/11/15 09:27:57;;;;;;;4.60;4.20;;;;;;;;;;4996127;28;20337;-73
2022/11/15 09:30:41;;;;;;;8.10;4.40;;;;;;;;;;4981735;28;20612;-72
2022/11/15 09:33:28;;;;;;;4.27;3.87;;;;;;;;;;4974971;28;20224;-74
2022/11/15 09:36:12;;;;;;;4.43;4.03;;;;;;;;;;4953621;28;20256;-72
2022/11/15 09:38:58;;;;;;;5.37;4.27;;;;;;;;;;4972403;28;20275;-73
2022/11/15 09:41:54;;;;;;;4.27;3.87;;;;;;;;;;4990231;28;20235;-72
2022/11/15 09:44:57;;;;;;;4.43;4.03;;;;;;;;;;4985524;28;20278;-73
2022/11/15 09:48:01;;;;;;;3.77;3.47;;;;;;;;;;4979175;28;20308;-73
2022/11/15 09:50:51;;;;;;;3.93;3.63;;;;;;;;;;4974013;28;20228;-72
2022/11/15 09:53:36;;;;;;;4.53;4.13;;;;;;;;;;4982702;28;20224;-72
2022/11/15 09:56:05;;;;;;;4.13;3.77;;;;;;;;;;4958032;28;20225;-73
2022/11/15 09:58:54;;;;;;;10.70;9.80;;;;;;;;;;4930388;28;20791;-75
2022/11/15 10:01:30;;;;;;;5.77;4.53;;;;;;;;;;4976082;28;20585;-73
2022/11/15 10:04:01;;;;;;;4.70;4.30;;;;;;;;;;4965542;28;20682;-71
2022/11/15 10:06:42;;;;;;;4.07;3.67;;;;;;;;;;4964126;28;20754;-73
2022/11/15 10:09:25;;;;;;;5.03;4.03;;;;;;;;;;4964898;28;20221;-72
2022/11/15 10:11:53;;;;;;;4.27;3.63;;;;;;;;;;4994474;28;20304;-71
2022/11/15 10:14:21;;;;;;;4.20;3.80;;;;;;;;;;4947695;28;20759;-72
2022/11/15 10:17:19;;;;;;;3.53;3.23;;;;;;;;;;4970663;28;20218;-72
2022/11/15 10:19:56;;;;;;;3.73;3.43;;;;;;;;;;4997494;28;20237;-72
2022/11/15 10:22:50;;;;;;;4.30;3.60;;;;;;;;;;4984480;28;20221;-72
2022/11/15 10:25:26;;;;;;;4.13;3.83;;;;;;;;;;4976671;28;20235;-72
2022/11/15 10:28:21;;;;;;;3.53;3.30;;;;;;;;;;4949127;28;20275;-73
2022/11/15 10:30:56;;;;;;;3.80;3.50;;;;;;;;;;4969450;28;20231;-72
2022/11/15 10:33:38;;;;;;;3.80;3.50;;;;;;;;;;4978514;28;20665;-73
2022/11/15 10:36:10;;;;;;;7.00;4.13;;;;;;;;;;4973737;28;20232;-72
2022/11/15 10:38:48;;;;;;;3.90;3.50;;;;;;;;;;4983704;28;20242;-71
2022/11/15 10:41:43;;;;;;;3.37;3.07;;;;;;;;;;4962346;28;20602;-71
2022/11/15 10:44:11;;;;;;;4.10;3.73;;;;;;;;;;4985768;28;20213;-72
2022/11/15 10:46:39;;;;;;;3.37;3.07;;;;;;;;;;4997003;28;20244;-71
2022/11/15 10:49:16;;;;;;;3.97;3.37;;;;;;;;;;4973108;28;20698;-71
2022/11/15 10:51:59;;;;;;;3.40;3.07;;;;;;;;;;4995270;28;20272;-72
2022/11/15 10:54:37;;;;;;;3.63;3.10;;;;;;;;;;4938667;28;20237;-72
2022/11/15 10:57:32;;;;;;;3.30;2.80;;;;;;;;;;4967292;28;20298;-71
2022/11/15 11:00:00;;;;;;;3.33;3.03;;;;;;;;;;4964231;28;20241;-72
2022/11/15 11:02:32;;;;;;;3.67;3.10;;;;;;;;;;4971466;28;20763;-72
2022/11/15 11:04:58;;;;;;;3.17;2.87;;;;;;;;;;4994806;28;20233;-72
2022/11/15 11:07:29;;;;;;;3.50;3.20;;;;;;;;;;4982216;28;20271;-72
2022/11/15 11:10:17;;;;;;;4.28;2.88;;;;;;;;;;4963739;28;20226;-72
2022/11/15 11:12:45;;;;;;;3.00;2.70;;;;;;;;;;4949020;28;20225;-71
2022/11/15 11:15:13;;;;;;;5.00;2.95;;;;;;;;;;4962224;28;20747;-71
2022/11/15 11:18:09;;;;;;;3.10;2.67;;;;;;;;;;4977921;28;20229;-72
2022/11/15 11:20:50;;;;;;;2.80;2.60;;;;;;;;;;4975731;28;20228;-72
2022/11/15 11:23:31;;;;;;;2.95;2.75;;;;;;;;;;4976681;28;20256;-72
2022/11/15 11:26:10;;;;;;;3.15;2.80;;;;;;;;;;4995377;28;20232;-72
2022/11/15 11:28:36;;;;;;;3.47;2.43;;;;;;;;;;4969375;28;20221;-73
2022/11/15 11:31:25;;;;;;;3.80;2.47;;;;;;;;;;4996224;28;20287;-71
2022/11/15 11:34:25;;;;;;;2.80;2.47;;;;;;;;;;4985163;28;20221;-72
2022/11/15 11:37:09;;;;;;;4.63;2.70;;;;;;;;;;4972910;28;20240;-72
2022/11/15 11:39:54;;;;;;;2.70;2.43;;;;;;;;;;4966073;28;20237;-72
2022/11/15 11:42:25;;;;;;;4.37;2.53;;;;;;;;;;4989327;28;20248;-72
2022/11/15 11:45:22;;;;;;;3.40;2.73;;;;;;;;;;4960260;28;20241;-73
2022/11/15 11:47:55;;;;;;;2.75;2.53;;;;;;;;;;4963869;28;20679;-73
2022/11/15 11:50:25;;;;;;;3.08;2.53;;;;;;;;;;4952795;28;20225;-74
2022/11/15 11:52:57;;;;;;;3.10;2.15;;;;;;;;;;4951646;28;20275;-73
2022/11/15 11:55:26;;;;;;;3.00;2.70;;;;;;;;;;4956282;28;20252;-73
2022/11/15 11:58:09;;;;;;;2.30;2.20;;;;;;;;;;4955086;28;20308;-73
2022/11/15 12:00:39;;;;;;;2.90;2.43;;;;;;;;;;4986492;28;20264;-74
2022/11/15 12:03:28;;;;;;;2.40;2.20;;;;;;;;;;4965052;28;20240;-73
2022/11/15 12:06:05;;;;;;;2.13;2.00;;;;;;;;;;4964279;28;20230;-73
2022/11/15 12:08:52;;;;;;;2.17;2.08;;;;;;;;;;4984297;28;20230;-72
2022/11/15 12:11:28;;;;;;;2.22;2.03;;;;;;;;;;4961055;28;20730;-73
2022/11/15 12:13:58;;;;;;;2.00;1.90;;;;;;;;;;4976032;28;20308;-73
2022/11/15 12:16:28;;;;;;;2.57;2.23;;;;;;;;;;4980805;28;20233;-73
2022/11/15 12:18:54;;;;;;;2.08;1.88;;;;;;;;;;4967578;28;20379;-74
2022/11/15 12:21:31;;;;;;;2.78;2.10;;;;;;;;;;4959529;28;20224;-73
2022/11/15 12:24:09;;;;;;;2.67;2.10;;;;;;;;;;4993783;28;20232;-73
2022/11/15 12:27:16;;;;;;;2.25;2.05;;;;;;;;;;4959509;28;20222;-73
2022/11/15 12:29:52;;;;;;;2.95;2.28;;;;;;;;;;4871719;29;20228;-73
2022/11/15 12:32:34;;;;;;;2.42;2.22;;;;;;;;;;4954248;28;20217;-73
2022/11/15 12:35:01;;;;;;;2.05;1.90;;;;;;;;;;4960872;28;20729;-73
2022/11/15 12:37:40;;;;;;;2.40;2.20;;;;;;;;;;4985674;28;20635;-75
2022/11/15 12:41:10;;;;;;;2.30;2.10;;;;;;;;;;4978833;28;20695;-73
2022/11/15 12:43:43;;;;;;;2.47;2.27;;;;;;;;;;4931277;28;20610;-73
2022/11/15 12:46:21;;;;;;;1.98;1.88;;;;;;;;;;4974975;28;20230;-76
2022/11/15 12:48:54;;;;;;;1.90;1.80;;;;;;;;;;4979862;28;20248;-73
2022/11/15 12:51:21;;;;;;;1.60;1.50;;;;;;;;;;4962790;28;20236;-72
2022/11/15 12:53:51;;;;;;;2.40;2.00;;;;;;;;;;4958556;28;20233;-75
2022/11/15 12:56:20;;;;;;;1.90;1.80;;;;;;;;;;4947685;28;20227;-74
2022/11/15 12:58:50;;;;;;;1.92;1.80;;;;;;;;;;4961369;28;20300;-73
2022/11/15 13:01:33;;;;;;;2.72;1.75;;;;;;;;;;4990634;28;20774;-74
2022/11/15 13:04:18;;;;;;;2.23;2.03;;;;;;;;;;4998491;28;20754;-75
2022/11/15 13:06:52;;;;;;;2.10;1.90;;;;;;;;;;4991026;28;20332;-74
2022/11/15 13:09:41;;;;;;;4.72;2.00;;;;;;;;;;4999550;28;20295;-73
2022/11/15 13:12:16;;;;;;;2.97;1.75;;;;;;;;;;4990858;28;20719;-73
2022/11/15 13:14:43;;;;;;;2.00;1.80;;;;;;;;;;4958626;28;20298;-73
2022/11/15 13:17:41;;;;;;;1.70;1.60;;;;;;;;;;4985183;28;20699;-73
2022/11/15 13:20:10;;;;;;;2.20;2.00;;;;;;;;;;4976022;28;20225;-73
2022/11/15 13:23:03;;;;;;;1.70;1.60;;;;;;;;;;4992101;28;20244;-73
2022/11/15 13:26:08;;;;;;;2.00;1.70;;;;;;;;;;4998617;28;20221;-73
2022/11/15 13:28:52;;;;;;;2.08;1.88;;;;;;;;;;4999909;28;20251;-73
2022/11/15 13:31:37;;;;;;;2.05;1.83;;;;;;;;;;4980174;28;20225;-74
2022/11/15 13:34:24;;;;;;;1.60;1.50;;;;;;;;;;4957369;28;20221;-73
2022/11/15 13:36:51;;;;;;;3.22;1.80;;;;;;;;;;4979761;28;20282;-72
2022/11/15 13:39:29;;;;;;;3.63;1.70;;;;;;;;;;4962280;28;20230;-72
2022/11/15 13:41:55;;;;;;;2.10;1.98;;;;;;;;;;4978934;28;20263;-71
2022/11/15 13:44:31;;;;;;;1.80;1.70;;;;;;;;;;4962795;28;20209;-75
2022/11/15 13:47:26;;;;;;;2.15;1.85;;;;;;;;;;4957993;28;20236;-72
2022/11/15 13:49:53;;;;;;;2.22;1.80;;;;;;;;;;4968891;28;20778;-72
2022/11/15 13:52:21;;;;;;;1.95;1.80;;;;;;;;;;4947586;28;20229;-74
2022/11/15 13:55:01;;;;;;;2.10;1.65;;;;;;;;;;4967876;28;20225;-72
2022/11/15 13:57:30;;;;;;;1.90;1.80;;;;;;;;;;4979131;28;20592;-76
2022/11/15 14:00:11;;;;;;;3.60;1.70;;;;;;;;;;4941134;28;20228;-73
2022/11/15 14:02:38;;;;;;;1.70;1.60;;;;;;;;;;4947767;28;20221;-73
2022/11/15 14:05:21;;;;;;;2.63;1.60;;;;;;;;;;4987901;28;20232;-73
2022/11/15 14:08:23;;;;;;;3.60;1.70;;;;;;;;;;4962729;28;20752;-75
2022/11/15 14:10:48;;;;;;;1.60;1.50;;;;;;;;;;4981660;28;20824;-73
2022/11/15 14:13:27;;;;;;;2.10;1.60;;;;;;;;;;4970822;28;20233;-74
2022/11/15 14:16:21;;;;;;;1.50;1.40;;;;;;;;;;4981248;28;20236;-73
2022/11/15 14:18:50;;;;;;;1.90;1.63;;;;;;;;;;4956254;28;20316;-73
2022/11/15 14:21:17;;;;;;;1.98;1.55;;;;;;;;;;4982742;28;20305;-73
2022/11/15 14:23:42;;;;;;;3.35;1.80;;;;;;;;;;4957562;28;20695;-73
2022/11/15 14:26:32;;;;;;;2.25;1.48;;;;;;;;;;4985966;28;20264;-73
2022/11/15 14:29:19;;;;;;;2.38;1.63;;;;;;;;;;4969941;28;20240;-73
2022/11/15 14:31:49;;;;;;;1.90;1.80;;;;;;;;;;4971590;28;20248;-73
2022/11/15 14:34:15;;;;;;;1.85;1.73;;;;;;;;;;4972116;28;20229;-73
2022/11/15 14:36:40;;;;;;;1.70;1.60;;;;;;;;;;4941942;28;20240;-72
2022/11/15 14:39:06;;;;;;;1.95;1.65;;;;;;;;;;4978495;28;20237;-73
2022/11/15 14:41:37;;;;;;;2.17;1.70;;;;;;;;;;4964200;28;20221;-73
2022/11/15 14:44:03;;;;;;;1.87;1.70;;;;;;;;;;4981317;28;20730;-75
2022/11/15 14:46:29;;;;;;;1.60;1.50;;;;;;;;;;4937090;28;20220;-72
2022/11/15 14:48:59;;;;;;;1.60;1.50;;;;;;;;;;4968967;28;20679;-72
2022/11/15 14:51:26;;;;;;;1.77;1.65;;;;;;;;;;4939938;28;20225;-74
2022/11/15 14:54:00;;;;;;;2.30;1.57;;;;;;;;;;4966506;28;20245;-74
2022/11/15 14:56:26;;;;;;;1.80;1.70;;;;;;;;;;4962763;28;20615;-73
2022/11/15 14:58:52;;;;;;;1.80;1.50;;;;;;;;;;4966907;28;20226;-73
2022/11/15 15:01:21;;;;;;;2.33;1.97;;;;;;;;;;4987246;28;20217;-73
2022/11/15 15:03:51;;;;;;;1.77;1.60;;;;;;;;;;4995119;28;20895;-73
2022/11/15 15:06:18;;;;;;;1.70;1.60;;;;;;;;;;5007327;28;20713;-73
2022/11/15 15:08:44;;;;;;;1.80;1.60;;;;;;;;;;4978091;28;20807;-73
2022/11/15 15:11:20;;;;;;;2.07;1.77;;;;;;;;;;4999399;28;20228;-74
2022/11/15 15:13:48;;;;;;;1.80;1.70;;;;;;;;;;4969512;28;20283;-73
2022/11/15 15:16:14;;;;;;;2.13;1.90;;;;;;;;;;4983783;28;20244;-72
2022/11/15 15:18:42;;;;;;;1.73;1.63;;;;;;;;;;4971914;28;20783;-73
2022/11/15 15:21:28;;;;;;;2.07;1.57;;;;;;;;;;4959079;28;20645;-74
2022/11/15 15:23:58;;;;;;;2.47;1.83;;;;;;;;;;4959041;28;20729;-73
2022/11/15 15:26:24;;;;;;;1.80;1.70;;;;;;;;;;4983191;28;20246;-73
2022/11/15 15:29:16;;;;;;;1.90;1.80;;;;;;;;;;4934722;28;20214;-71
2022/11/15 15:31:47;;;;;;;1.70;1.60;;;;;;;;;;4934721;28;20312;-73
2022/11/15 15:37:24;;;;;;;1.70;1.60;;;;;;;;;;4971008;28;20233;-71
2022/11/15 15:39:54;;;;;;;2.33;2.00;;;;;;;;;;4922407;28;20238;-72
2022/11/15 15:42:22;;;;;;;2.00;1.90;;;;;;;;;;4903021;28;20300;-73
2022/11/15 15:44:48;;;;;;;2.20;1.63;;;;;;;;;;4919179;29;20234;-71
2022/11/15 15:47:19;;;;;;;3.53;1.80;;;;;;;;;;4918912;28;20779;-71
2022/11/15 15:49:47;;;;;;;1.73;1.63;;;;;;;;;;4935249;29;20257;-72
2022/11/15 15:52:13;;;;;;;1.90;1.80;;;;;;;;;;4929062;28;20223;-72
2022/11/15 15:54:43;;;;;;;2.20;2.00;;;;;;;;;;4918973;28;20234;-73
2022/11/15 15:57:15;;;;;;;2.93;2.00;;;;;;;;;;4917384;28;20207;-73
2022/11/15 15:59:41;;;;;;;2.03;1.93;;;;;;;;;;4925893;29;20238;-72
2022/11/15 16:02:11;;;;;;;3.30;2.00;;;;;;;;;;4906850;28;20227;-71
2022/11/15 16:04:36;;;;;;;2.60;1.97;;;;;;;;;;4919205;28;20281;-71
2022/11/15 16:07:04;;;;;;;3.30;3.00;;;;;;;;;;4951148;28;20667;-70
2022/11/15 16:12:16;;;;;;;3.33;2.50;;;;;;;;;;4933317;28;20281;-73
2022/11/15 16:14:43;;;;;;;5.30;2.30;;;;;;;;;;4927653;29;20237;-71
2022/11/15 16:17:18;;;;;;;3.17;2.70;;;;;;;;;;4940711;28;21078;-73
2022/11/15 16:19:46;;;;;;;3.10;2.80;;;;;;;;;;4919058;29;20766;-71
2022/11/15 16:22:12;;;;;;;6.27;5.67;;;;;;;;;;4931155;28;20230;-71
2022/11/15 16:24:38;;;;;;;5.17;4.70;;;;;;;;;;4934626;28;20294;-73
2022/11/15 16:27:03;;;;;;;3.30;2.73;;;;;;;;;;4934765;28;20230;-72